sensor_id;sensor_type;location;lat;lon;timestamp;pressure;altitude;pressure_sealevel;temperature;humidity
60061;BME280;45933;51.336;12.612;2022-10-16T00:00:17;99562.94;;;17.77;65.07
60061;BME280;45933;51.336;12.612;2022-10-16T00:02:42;99566.19;;;17.82;64.91
60061;BME280;45933;51.336;12.612;2022-10-16T00:05:07;99567.00;;;17.84;64.77
60061;BME280;45933;51.336;12.612;2022-10-16T00:07:33;99576.31;;;17.93;64.45
60061;BME280;45933;51.336;12.612;2022-10-16T00:09:58;99565.59;;;17.96;64.27
60061;BME280;45933;51.336;12.612;2022-10-16T00:12:23;99581.50;;;17.94;64.81
60061;BME280;45933;51.336;12.612;2022-10-16T00:14:49;99571.09;;;17.91;64.63
60061;BME280;45933;51.336;12.612;2022-10-16T00:17:14;99567.59;;;17.91;64.52
60061;BME280;45933;51.336;12.612;2022-10-16T00:19:39;99564.22;;;17.87;64.75
60061;BME280;45933;51.336;12.612;2022-10-16T00:22:05;99561.75;;;17.84;64.60
60061;BME280;45933;51.336;12.612;2022-10-16T00:24:30;99569.00;;;17.79;64.95
60061;BME280;45933;51.336;12.612;2022-10-16T00:26:55;99569.00;;;17.79;64.99
60061;BME280;45933;51.336;12.612;2022-10-16T00:29:20;99567.13;;;17.81;64.58
60061;BME280;45933;51.336;12.612;2022-10-16T00:31:46;99579.66;;;17.76;65.14
60061;BME280;45933;51.336;12.612;2022-10-16T00:34:11;99572.66;;;17.75;64.82
60061;BME280;45933;51.336;12.612;2022-10-16T00:36:36;99584.06;;;17.75;64.55
60061;BME280;45933;51.336;12.612;2022-10-16T00:39:02;99588.66;;;17.70;64.64
60061;BME280;45933;51.336;12.612;2022-10-16T00:41:28;99573.69;;;17.72;64.65
60061;BME280;45933;51.336;12.612;2022-10-16T00:43:59;99583.53;;;17.67;65.31
60061;BME280;45933;51.336;12.612;2022-10-16T00:46:40;99585.09;;;17.71;64.73
60061;BME280;45933;51.336;12.612;2022-10-16T00:49:09;99584.50;;;17.65;65.00
60061;BME280;45933;51.336;12.612;2022-10-16T00:51:43;99591.47;;;17.66;65.01
60061;BME280;45933;51.336;12.612;2022-10-16T00:54:15;99595.19;;;17.62;65.07
60061;BME280;45933;51.336;12.612;2022-10-16T00:56:42;99590.88;;;17.59;65.03
60061;BME280;45933;51.336;12.612;2022-10-16T00:59:16;99584.75;;;17.59;65.52
60061;BME280;45933;51.336;12.612;2022-10-16T01:01:42;99595.50;;;17.54;65.37
60061;BME280;45933;51.336;12.612;2022-10-16T01:04:07;99595.41;;;17.56;65.58
60061;BME280;45933;51.336;12.612;2022-10-16T01:06:56;99582.00;;;17.62;65.10
60061;BME280;45933;51.336;12.612;2022-10-16T01:09:37;99574.28;;;17.57;65.32
60061;BME280;45933;51.336;12.612;2022-10-16T01:14:54;99582.00;;;17.62;65.50
60061;BME280;45933;51.336;12.612;2022-10-16T01:17:28;99585.50;;;17.62;65.73
60061;BME280;45933;51.336;12.612;2022-10-16T01:20:10;99581.94;;;17.63;65.76
60061;BME280;45933;51.336;12.612;2022-10-16T01:22:54;99578.28;;;17.66;65.78
60061;BME280;45933;51.336;12.612;2022-10-16T01:25:52;99594.91;;;17.68;65.88
60061;BME280;45933;51.336;12.612;2022-10-16T01:28:14;99593.31;;;17.64;65.86
60061;BME280;45933;51.336;12.612;2022-10-16T01:30:42;99604.53;;;17.69;65.60
60061;BME280;45933;51.336;12.612;2022-10-16T01:33:15;99599.97;;;17.74;65.32
60061;BME280;45933;51.336;12.612;2022-10-16T01:35:46;99597.47;;;17.69;65.70
60061;BME280;45933;51.336;12.612;2022-10-16T01:38:19;99602.66;;;17.72;65.90
60061;BME280;45933;51.336;12.612;2022-10-16T01:40:51;99592.13;;;17.71;65.73
60061;BME280;45933;51.336;12.612;2022-10-16T01:43:22;99589.69;;;17.66;66.27
60061;BME280;45933;51.336;12.612;2022-10-16T01:45:49;99590.56;;;17.67;65.82
60061;BME280;45933;51.336;12.612;2022-10-16T01:48:17;99592.97;;;17.73;65.51
60061;BME280;45933;51.336;12.612;2022-10-16T01:50:52;99597.41;;;17.71;65.80
60061;BME280;45933;51.336;12.612;2022-10-16T01:53:19;99602.09;;;17.64;65.81
60061;BME280;45933;51.336;12.612;2022-10-16T01:55:47;99608.13;;;17.66;65.92
60061;BME280;45933;51.336;12.612;2022-10-16T01:58:14;99614.31;;;17.67;65.82
60061;BME280;45933;51.336;12.612;2022-10-16T02:00:43;99607.16;;;17.69;66.04
60061;BME280;45933;51.336;12.612;2022-10-16T02:03:11;99609.81;;;17.69;66.30
60061;BME280;45933;51.336;12.612;2022-10-16T02:05:45;99612.13;;;17.76;65.97
60061;BME280;45933;51.336;12.612;2022-10-16T02:08:11;99611.59;;;17.68;65.98
60061;BME280;45933;51.336;12.612;2022-10-16T02:10:37;99614.06;;;17.71;65.97
60061;BME280;45933;51.336;12.612;2022-10-16T02:15:34;99619.44;;;17.70;65.85
60061;BME280;45933;51.336;12.612;2022-10-16T02:18:00;99613.22;;;17.71;65.88
60061;BME280;45933;51.336;12.612;2022-10-16T02:20:28;99608.81;;;17.71;66.02
60061;BME280;45933;51.336;12.612;2022-10-16T02:22:56;99606.31;;;17.68;65.86
60061;BME280;45933;51.336;12.612;2022-10-16T02:28:06;99597.97;;;17.79;65.44
60061;BME280;45933;51.336;12.612;2022-10-16T02:30:42;99607.09;;;17.70;65.90
60061;BME280;45933;51.336;12.612;2022-10-16T02:33:10;99623.06;;;17.67;66.14
60061;BME280;45933;51.336;12.612;2022-10-16T02:35:39;99622.25;;;17.65;66.22
60061;BME280;45933;51.336;12.612;2022-10-16T02:38:06;99628.38;;;17.66;66.16
60061;BME280;45933;51.336;12.612;2022-10-16T02:40:33;99627.66;;;17.62;66.42
60061;BME280;45933;51.336;12.612;2022-10-16T02:42:58;99632.88;;;17.64;66.15
60061;BME280;45933;51.336;12.612;2022-10-16T02:45:24;99634.56;;;17.65;65.96
60061;BME280;45933;51.336;12.612;2022-10-16T02:47:49;99629.63;;;17.57;66.85
60061;BME280;45933;51.336;12.612;2022-10-16T02:50:15;99631.16;;;17.63;66.13
60061;BME280;45933;51.336;12.612;2022-10-16T02:52:41;99639.06;;;17.63;66.24
60061;BME280;45933;51.336;12.612;2022-10-16T02:55:06;99635.84;;;17.56;66.42
60061;BME280;45933;51.336;12.612;2022-10-16T02:57:32;99628.81;;;17.55;66.73
60061;BME280;45933;51.336;12.612;2022-10-16T02:59:58;99632.53;;;17.51;66.97
60061;BME280;45933;51.336;12.612;2022-10-16T03:02:23;99624.53;;;17.52;67.27
60061;BME280;45933;51.336;12.612;2022-10-16T03:04:49;99629.75;;;17.54;66.69
60061;BME280;45933;51.336;12.612;2022-10-16T03:07:14;99634.94;;;17.56;66.46
60061;BME280;45933;51.336;12.612;2022-10-16T03:09:39;99626.19;;;17.55;66.63
60061;BME280;45933;51.336;12.612;2022-10-16T03:12:05;99634.22;;;17.52;67.14
60061;BME280;45933;51.336;12.612;2022-10-16T03:14:30;99637.78;;;17.51;66.68
60061;BME280;45933;51.336;12.612;2022-10-16T03:16:56;99636.97;;;17.49;66.94
60061;BME280;45933;51.336;12.612;2022-10-16T03:19:21;99640.66;;;17.45;67.37
60061;BME280;45933;51.336;12.612;2022-10-16T03:21:47;99645.03;;;17.46;67.19
60061;BME280;45933;51.336;12.612;2022-10-16T03:24:12;99649.31;;;17.48;67.14
60061;BME280;45933;51.336;12.612;2022-10-16T03:26:38;99644.97;;;17.47;67.43
60061;BME280;45933;51.336;12.612;2022-10-16T03:29:03;99637.13;;;17.46;67.28
60061;BME280;45933;51.336;12.612;2022-10-16T03:31:29;99638.91;;;17.45;67.29
60061;BME280;45933;51.336;12.612;2022-10-16T03:33:55;99639.75;;;17.46;67.30
60061;BME280;45933;51.336;12.612;2022-10-16T03:36:20;99641.59;;;17.44;67.61
60061;BME280;45933;51.336;12.612;2022-10-16T03:38:46;99660.09;;;17.42;67.35
60061;BME280;45933;51.336;12.612;2022-10-16T03:41:11;99659.00;;;17.48;66.91
60061;BME280;45933;51.336;12.612;2022-10-16T03:43:36;99661.81;;;17.43;67.49
60061;BME280;45933;51.336;12.612;2022-10-16T03:46:01;99666.03;;;17.47;67.14
60061;BME280;45933;51.336;12.612;2022-10-16T03:48:27;99660.94;;;17.43;67.37
60061;BME280;45933;51.336;12.612;2022-10-16T03:50:52;99667.06;;;17.43;67.34
60061;BME280;45933;51.336;12.612;2022-10-16T03:53:18;99651.25;;;17.43;67.02
60061;BME280;45933;51.336;12.612;2022-10-16T03:55:44;99656.72;;;17.39;67.41
60061;BME280;45933;51.336;12.612;2022-10-16T03:58:10;99657.56;;;17.39;67.26
60061;BME280;45933;51.336;12.612;2022-10-16T04:00:35;99647.00;;;17.41;67.07
60061;BME280;45933;51.336;12.612;2022-10-16T04:03:01;99640.91;;;17.39;67.25
60061;BME280;45933;51.336;12.612;2022-10-16T04:05:26;99639.94;;;17.41;67.22
60061;BME280;45933;51.336;12.612;2022-10-16T04:07:52;99636.50;;;17.39;67.02
60061;BME280;45933;51.336;12.612;2022-10-16T04:10:17;99646.34;;;17.34;67.33
60061;BME280;45933;51.336;12.612;2022-10-16T04:12:43;99646.34;;;17.34;67.21
60061;BME280;45933;51.336;12.612;2022-10-16T04:15:08;99651.59;;;17.36;67.29
60061;BME280;45933;51.336;12.612;2022-10-16T04:17:35;99658.56;;;17.37;66.98
60061;BME280;45933;51.336;12.612;2022-10-16T04:20:00;99648.03;;;17.37;67.20
60061;BME280;45933;51.336;12.612;2022-10-16T04:22:25;99636.72;;;17.35;67.15
60061;BME280;45933;51.336;12.612;2022-10-16T04:24:51;99643.78;;;17.33;67.38
60061;BME280;45933;51.336;12.612;2022-10-16T04:27:16;99652.63;;;17.32;67.20
60061;BME280;45933;51.336;12.612;2022-10-16T04:29:41;99641.16;;;17.33;67.02
60061;BME280;45933;51.336;12.612;2022-10-16T04:32:08;99650.78;;;17.34;66.93
60061;BME280;45933;51.336;12.612;2022-10-16T04:34:34;99654.47;;;17.30;67.23
60061;BME280;45933;51.336;12.612;2022-10-16T04:36:59;99666.81;;;17.28;67.09
60061;BME280;45933;51.336;12.612;2022-10-16T04:39:25;99683.50;;;17.28;66.75
60061;BME280;45933;51.336;12.612;2022-10-16T04:41:50;99681.88;;;17.24;66.97
60061;BME280;45933;51.336;12.612;2022-10-16T04:44:15;99683.91;;;17.17;67.51
60061;BME280;45933;51.336;12.612;2022-10-16T04:46:41;99675.16;;;17.17;67.31
60061;BME280;45933;51.336;12.612;2022-10-16T04:49:06;99674.47;;;17.12;67.51
60061;BME280;45933;51.336;12.612;2022-10-16T04:51:31;99685.00;;;17.12;67.30
60061;BME280;45933;51.336;12.612;2022-10-16T04:53:57;99694.63;;;17.13;67.37
60061;BME280;45933;51.336;12.612;2022-10-16T04:56:22;99704.38;;;17.11;66.98
60061;BME280;45933;51.336;12.612;2022-10-16T04:58:48;99704.59;;;17.05;67.76
60061;BME280;45933;51.336;12.612;2022-10-16T05:01:13;99695.88;;;17.03;67.79
60061;BME280;45933;51.336;12.612;2022-10-16T05:03:39;99690.84;;;16.96;67.92
60061;BME280;45933;51.336;12.612;2022-10-16T05:06:07;99704.72;;;17.02;67.90
60061;BME280;45933;51.336;12.612;2022-10-16T05:08:32;99704.78;;;17.00;67.70
60061;BME280;45933;51.336;12.612;2022-10-16T05:10:58;99709.28;;;16.96;67.72
60061;BME280;45933;51.336;12.612;2022-10-16T05:13:24;99718.22;;;16.92;68.02
60061;BME280;45933;51.336;12.612;2022-10-16T05:15:49;99723.31;;;16.97;68.02
60061;BME280;45933;51.336;12.612;2022-10-16T05:18:15;99721.59;;;16.96;67.99
60061;BME280;45933;51.336;12.612;2022-10-16T05:20:41;99732.06;;;16.97;67.91
60061;BME280;45933;51.336;12.612;2022-10-16T05:23:07;99729.56;;;16.94;67.88
60061;BME280;45933;51.336;12.612;2022-10-16T05:25:32;99724.16;;;16.97;67.63
60061;BME280;45933;51.336;12.612;2022-10-16T05:27:57;99721.91;;;16.88;67.96
60061;BME280;45933;51.336;12.612;2022-10-16T05:30:22;99719.94;;;16.93;67.96
60061;BME280;45933;51.336;12.612;2022-10-16T05:32:50;99725.16;;;16.95;68.03
60061;BME280;45933;51.336;12.612;2022-10-16T05:35:17;99717.41;;;16.90;67.91
60061;BME280;45933;51.336;12.612;2022-10-16T05:37:43;99721.72;;;16.93;67.68
60061;BME280;45933;51.336;12.612;2022-10-16T05:40:09;99735.75;;;16.93;67.90
60061;BME280;45933;51.336;12.612;2022-10-16T05:42:34;99730.34;;;16.96;67.54
60061;BME280;45933;51.336;12.612;2022-10-16T05:45:00;99727.72;;;16.96;67.54
60061;BME280;45933;51.336;12.612;2022-10-16T05:47:25;99732.13;;;16.96;67.80
60061;BME280;45933;51.336;12.612;2022-10-16T05:49:51;99737.31;;;16.97;67.48
60061;BME280;45933;51.336;12.612;2022-10-16T05:52:16;99745.19;;;16.99;67.66
60061;BME280;45933;51.336;12.612;2022-10-16T05:54:41;99743.47;;;16.98;67.81
60061;BME280;45933;51.336;12.612;2022-10-16T05:57:07;99745.19;;;16.99;67.67
60061;BME280;45933;51.336;12.612;2022-10-16T05:59:32;99744.44;;;16.95;67.93
60061;BME280;45933;51.336;12.612;2022-10-16T06:01:57;99740.78;;;16.99;67.42
60061;BME280;45933;51.336;12.612;2022-10-16T06:04:23;99746.84;;;17.02;67.62
60061;BME280;45933;51.336;12.612;2022-10-16T06:06:48;99745.91;;;17.03;67.50
60061;BME280;45933;51.336;12.612;2022-10-16T06:09:13;99745.91;;;17.03;67.66
60061;BME280;45933;51.336;12.612;2022-10-16T06:11:39;99760.84;;;17.02;67.93
60061;BME280;45933;51.336;12.612;2022-10-16T06:14:05;99766.78;;;17.09;67.57
60061;BME280;45933;51.336;12.612;2022-10-16T06:16:33;99763.25;;;17.08;67.73
60061;BME280;45933;51.336;12.612;2022-10-16T06:18:59;99766.78;;;17.09;67.64
60061;BME280;45933;51.336;12.612;2022-10-16T06:21:26;99776.38;;;17.10;67.66
60061;BME280;45933;51.336;12.612;2022-10-16T06:23:52;99769.91;;;17.18;67.42
60061;BME280;45933;51.336;12.612;2022-10-16T06:26:21;99771.69;;;17.18;67.52
60061;BME280;45933;51.336;12.612;2022-10-16T06:28:48;99767.84;;;17.27;67.34
60061;BME280;45933;51.336;12.612;2022-10-16T06:31:14;99772.09;;;17.31;67.34
60061;BME280;45933;51.336;12.612;2022-10-16T06:33:40;99773.63;;;17.36;67.23
60061;BME280;45933;51.336;12.612;2022-10-16T06:36:07;99777.13;;;17.37;67.32
60061;BME280;45933;51.336;12.612;2022-10-16T06:38:33;99779.34;;;17.47;66.93
60061;BME280;45933;51.336;12.612;2022-10-16T06:40:59;99790.63;;;17.51;66.75
60061;BME280;45933;51.336;12.612;2022-10-16T06:43:24;99794.00;;;17.55;66.59
60061;BME280;45933;51.336;12.612;2022-10-16T06:45:59;99793.56;;;17.65;66.39
60061;BME280;45933;51.336;12.612;2022-10-16T06:48:26;99798.84;;;17.65;66.41
60061;BME280;45933;51.336;12.612;2022-10-16T06:51:12;99802.28;;;17.67;66.29
60061;BME280;45933;51.336;12.612;2022-10-16T06:53:43;99805.78;;;17.68;66.23
60061;BME280;45933;51.336;12.612;2022-10-16T06:56:17;99797.59;;;17.75;66.03
60061;BME280;45933;51.336;12.612;2022-10-16T06:58:43;99815.25;;;17.73;66.05
60061;BME280;45933;51.336;12.612;2022-10-16T07:01:10;99816.19;;;17.72;66.02
60061;BME280;45933;51.336;12.612;2022-10-16T07:03:45;99811.34;;;17.84;66.08
60061;BME280;45933;51.336;12.612;2022-10-16T07:06:13;99815.81;;;17.82;65.64
60061;BME280;45933;51.336;12.612;2022-10-16T07:08:40;99823.91;;;17.77;66.12
60061;BME280;45933;51.336;12.612;2022-10-16T07:11:08;99821.81;;;17.85;65.70
60061;BME280;45933;51.336;12.612;2022-10-16T07:13:38;99823.00;;;17.78;66.01
60061;BME280;45933;51.336;12.612;2022-10-16T07:16:05;99815.59;;;17.88;65.80
60061;BME280;45933;51.336;12.612;2022-10-16T07:18:31;99825.50;;;17.81;66.04
60061;BME280;45933;51.336;12.612;2022-10-16T07:21:04;99817.34;;;17.87;65.89
60061;BME280;45933;51.336;12.612;2022-10-16T07:23:29;99823.03;;;17.76;66.44
60061;BME280;45933;51.336;12.612;2022-10-16T07:25:55;99813.16;;;17.82;66.32
60061;BME280;45933;51.336;12.612;2022-10-16T07:28:20;99805.22;;;17.83;66.35
60061;BME280;45933;51.336;12.612;2022-10-16T07:30:46;99790.44;;;17.79;66.60
60061;BME280;45933;51.336;12.612;2022-10-16T07:33:11;99764.59;;;17.87;66.62
60061;BME280;45933;51.336;12.612;2022-10-16T07:35:36;99779.75;;;17.82;67.01
60061;BME280;45933;51.336;12.612;2022-10-16T07:38:02;99799.63;;;17.91;66.62
60061;BME280;45933;51.336;12.612;2022-10-16T07:40:27;99809.13;;;17.95;66.42
60061;BME280;45933;51.336;12.612;2022-10-16T07:42:52;99818.50;;;18.02;66.24
60061;BME280;45933;51.336;12.612;2022-10-16T07:45:18;99828.75;;;18.10;65.96
60061;BME280;45933;51.336;12.612;2022-10-16T07:47:43;99830.16;;;18.18;65.87
60061;BME280;45933;51.336;12.612;2022-10-16T07:50:08;99831.00;;;18.19;65.91
60061;BME280;45933;51.336;12.612;2022-10-16T07:52:34;99832.41;;;18.27;65.58
60061;BME280;45933;51.336;12.612;2022-10-16T07:54:59;99834.63;;;18.38;65.90
60061;BME280;45933;51.336;12.612;2022-10-16T07:57:24;99833.50;;;18.44;65.83
60061;BME280;45933;51.336;12.612;2022-10-16T07:59:50;99835.41;;;18.61;65.28
60061;BME280;45933;51.336;12.612;2022-10-16T08:02:15;99841.22;;;18.70;64.78
60061;BME280;45933;51.336;12.612;2022-10-16T08:04:40;99845.75;;;18.87;64.36
60061;BME280;45933;51.336;12.612;2022-10-16T08:07:07;99854.75;;;19.03;64.40
60061;BME280;45933;51.336;12.612;2022-10-16T08:09:32;99856.84;;;19.16;64.13
60061;BME280;45933;51.336;12.612;2022-10-16T08:11:58;99853.56;;;19.29;63.59
60061;BME280;45933;51.336;12.612;2022-10-16T08:14:23;99862.97;;;19.37;62.90
60061;BME280;45933;51.336;12.612;2022-10-16T08:16:48;99860.31;;;19.55;63.34
60061;BME280;45933;51.336;12.612;2022-10-16T08:19:14;99865.72;;;19.92;64.21
60061;BME280;45933;51.336;12.612;2022-10-16T08:21:40;99865.19;;;20.38;62.26
60061;BME280;45933;51.336;12.612;2022-10-16T08:24:06;99870.56;;;20.91;60.45
60061;BME280;45933;51.336;12.612;2022-10-16T08:26:31;99872.53;;;21.37;59.21
60061;BME280;45933;51.336;12.612;2022-10-16T08:28:56;99875.78;;;21.91;57.36
60061;BME280;45933;51.336;12.612;2022-10-16T08:31:22;99873.34;;;22.20;56.45
60061;BME280;45933;51.336;12.612;2022-10-16T08:33:48;99882.63;;;22.43;54.82
60061;BME280;45933;51.336;12.612;2022-10-16T08:36:14;99878.72;;;22.64;54.71
60061;BME280;45933;51.336;12.612;2022-10-16T08:38:40;99879.03;;;22.44;53.70
60061;BME280;45933;51.336;12.612;2022-10-16T08:41:28;99875.84;;;22.83;53.89
60061;BME280;45933;51.336;12.612;2022-10-16T08:44:29;99885.00;;;22.78;53.37
60061;BME280;45933;51.336;12.612;2022-10-16T08:49:31;99887.56;;;22.49;53.48
60061;BME280;45933;51.336;12.612;2022-10-16T08:51:57;99880.06;;;22.41;53.69
60061;BME280;45933;51.336;12.612;2022-10-16T08:57:09;99898.22;;;22.33;54.37
60061;BME280;45933;51.336;12.612;2022-10-16T08:59:36;99906.09;;;22.19;54.01
60061;BME280;45933;51.336;12.612;2022-10-16T09:02:02;99902.31;;;22.07;54.16
60061;BME280;45933;51.336;12.612;2022-10-16T09:16:01;99930.19;;;21.83;54.69
60061;BME280;45933;51.336;12.612;2022-10-16T09:18:56;99941.78;;;21.98;54.64
60061;BME280;45933;51.336;12.612;2022-10-16T09:21:27;99952.91;;;21.88;53.45
60061;BME280;45933;51.336;12.612;2022-10-16T09:23:57;99933.47;;;22.04;54.58
60061;BME280;45933;51.336;12.612;2022-10-16T09:26:24;99933.78;;;22.15;54.22
60061;BME280;45933;51.336;12.612;2022-10-16T09:28:52;99933.19;;;22.26;53.40
60061;BME280;45933;51.336;12.612;2022-10-16T09:31:21;99934.09;;;22.40;53.00
60061;BME280;45933;51.336;12.612;2022-10-16T09:33:54;99925.50;;;22.51;53.82
60061;BME280;45933;51.336;12.612;2022-10-16T09:36:21;99922.09;;;22.49;52.67
60061;BME280;45933;51.336;12.612;2022-10-16T09:38:48;99922.69;;;22.54;52.65
60061;BME280;45933;51.336;12.612;2022-10-16T09:41:20;99926.00;;;22.74;53.26
60061;BME280;45933;51.336;12.612;2022-10-16T09:43:52;99941.50;;;22.81;52.27
60061;BME280;45933;51.336;12.612;2022-10-16T09:46:22;99948.78;;;22.78;52.04
60061;BME280;45933;51.336;12.612;2022-10-16T09:48:50;99942.53;;;22.94;52.23
60061;BME280;45933;51.336;12.612;2022-10-16T09:51:36;99960.25;;;23.10;51.18
60061;BME280;45933;51.336;12.612;2022-10-16T09:54:14;99955.50;;;23.15;51.66
60061;BME280;45933;51.336;12.612;2022-10-16T09:56:40;99958.88;;;23.03;51.01
60061;BME280;45933;51.336;12.612;2022-10-16T09:59:16;99957.00;;;23.05;50.84
60061;BME280;45933;51.336;12.612;2022-10-16T10:01:51;99951.09;;;23.00;51.52
60061;BME280;45933;51.336;12.612;2022-10-16T10:04:18;99947.75;;;22.96;51.41
60061;BME280;45933;51.336;12.612;2022-10-16T10:06:47;99947.28;;;23.04;51.74
60061;BME280;45933;51.336;12.612;2022-10-16T10:11:50;99961.13;;;23.39;50.84
60061;BME280;45933;51.336;12.612;2022-10-16T10:14:40;99975.75;;;23.76;51.43
60061;BME280;45933;51.336;12.612;2022-10-16T10:17:13;99968.97;;;24.13;50.64
60061;BME280;45933;51.336;12.612;2022-10-16T10:19:46;99964.63;;;24.54;50.28
60061;BME280;45933;51.336;12.612;2022-10-16T10:22:23;99965.91;;;24.88;47.92
60061;BME280;45933;51.336;12.612;2022-10-16T10:25:39;99964.13;;;25.28;48.71
60061;BME280;45933;51.336;12.612;2022-10-16T10:28:19;99975.22;;;25.35;46.39
60061;BME280;45933;51.336;12.612;2022-10-16T10:31:16;99975.44;;;25.57;46.53
60061;BME280;45933;51.336;12.612;2022-10-16T10:36:39;99979.31;;;25.53;45.32
60061;BME280;45933;51.336;12.612;2022-10-16T10:39:13;99966.47;;;25.45;45.57
60061;BME280;45933;51.336;12.612;2022-10-16T10:45:13;99976.00;;;25.37;45.53
60061;BME280;45933;51.336;12.612;2022-10-16T10:48:21;99976.25;;;25.19;46.42
60061;BME280;45933;51.336;12.612;2022-10-16T10:50:58;99983.63;;;24.89;46.43
60061;BME280;45933;51.336;12.612;2022-10-16T10:53:49;99974.19;;;24.70;46.77
60061;BME280;45933;51.336;12.612;2022-10-16T10:56:39;99984.44;;;24.49;47.20
60061;BME280;45933;51.336;12.612;2022-10-16T11:02:21;99988.09;;;24.06;47.84
60061;BME280;45933;51.336;12.612;2022-10-16T11:05:15;99992.47;;;23.92;48.10
60061;BME280;45933;51.336;12.612;2022-10-16T11:07:52;99989.16;;;23.74;48.48
60061;BME280;45933;51.336;12.612;2022-10-16T11:10:22;99984.84;;;23.58;49.21
60061;BME280;45933;51.336;12.612;2022-10-16T11:13:25;99996.94;;;23.63;49.51
60061;BME280;45933;51.336;12.612;2022-10-16T11:15:55;99982.16;;;23.43;49.47
60061;BME280;45933;51.336;12.612;2022-10-16T11:18:33;99985.06;;;23.39;49.86
60061;BME280;45933;51.336;12.612;2022-10-16T11:21:09;99981.00;;;23.33;49.94
60061;BME280;45933;51.336;12.612;2022-10-16T11:26:53;99985.94;;;23.39;49.75
60061;BME280;45933;51.336;12.612;2022-10-16T11:29:26;99987.06;;;23.35;49.72
60061;BME280;45933;51.336;12.612;2022-10-16T11:31:58;99992.16;;;23.24;49.84
60061;BME280;45933;51.336;12.612;2022-10-16T11:34:32;99994.44;;;23.16;50.03
60061;BME280;45933;51.336;12.612;2022-10-16T11:37:07;99986.03;;;23.08;49.96
60061;BME280;45933;51.336;12.612;2022-10-16T11:39:35;99993.25;;;23.06;50.06
60061;BME280;45933;51.336;12.612;2022-10-16T11:42:09;99993.63;;;23.00;50.51
60061;BME280;45933;51.336;12.612;2022-10-16T11:44:51;99995.34;;;23.01;50.67
60061;BME280;45933;51.336;12.612;2022-10-16T11:47:25;100000.16;;;22.94;50.58
60061;BME280;45933;51.336;12.612;2022-10-16T11:49:59;99995.97;;;22.90;51.02
60061;BME280;45933;51.336;12.612;2022-10-16T11:52:33;100003.16;;;22.88;51.01
60061;BME280;45933;51.336;12.612;2022-10-16T11:55:18;99992.25;;;22.92;51.04
60061;BME280;45933;51.336;12.612;2022-10-16T11:57:49;100003.84;;;22.91;50.99
60061;BME280;45933;51.336;12.612;2022-10-16T12:00:38;100001.50;;;23.01;50.85
60061;BME280;45933;51.336;12.612;2022-10-16T12:06:27;100000.56;;;23.02;51.03
60061;BME280;45933;51.336;12.612;2022-10-16T12:08:58;100009.47;;;23.01;51.09
60061;BME280;45933;51.336;12.612;2022-10-16T12:14:58;100013.00;;;23.02;51.02
60061;BME280;45933;51.336;12.612;2022-10-16T12:22:41;100018.41;;;23.00;50.67
60061;BME280;45933;51.336;12.612;2022-10-16T12:25:27;100019.75;;;23.07;50.75
60061;BME280;45933;51.336;12.612;2022-10-16T12:27:55;100007.94;;;22.97;51.02
60061;BME280;45933;51.336;12.612;2022-10-16T12:30:24;100006.06;;;22.99;51.29
60061;BME280;45933;51.336;12.612;2022-10-16T12:32:55;100012.88;;;23.03;51.39
60061;BME280;45933;51.336;12.612;2022-10-16T12:35:33;100016.50;;;23.02;51.05
60061;BME280;45933;51.336;12.612;2022-10-16T12:38:19;100010.91;;;23.07;51.00
60061;BME280;45933;51.336;12.612;2022-10-16T12:40:55;100006.56;;;23.06;51.27
60061;BME280;45933;51.336;12.612;2022-10-16T12:43:36;100009.88;;;23.09;51.52
60061;BME280;45933;51.336;12.612;2022-10-16T12:46:22;100012.94;;;23.17;51.53
60061;BME280;45933;51.336;12.612;2022-10-16T12:48:48;100014.00;;;23.15;51.57
60061;BME280;45933;51.336;12.612;2022-10-16T12:54:45;100013.00;;;23.32;51.25
60061;BME280;45933;51.336;12.612;2022-10-16T12:57:18;100016.41;;;23.34;51.65
60061;BME280;45933;51.336;12.612;2022-10-16T13:00:12;100014.75;;;23.47;50.95
60061;BME280;45933;51.336;12.612;2022-10-16T13:08:43;100035.06;;;23.78;51.00
60061;BME280;45933;51.336;12.612;2022-10-16T13:16:48;100031.63;;;24.19;49.66
60061;BME280;45933;51.336;12.612;2022-10-16T13:24:42;100042.19;;;24.35;50.09
60061;BME280;45933;51.336;12.612;2022-10-16T13:27:35;100040.28;;;24.51;50.73
60061;BME280;45933;51.336;12.612;2022-10-16T13:30:20;100026.97;;;24.78;49.70
60061;BME280;45933;51.336;12.612;2022-10-16T13:32:49;100039.41;;;25.06;48.98
60061;BME280;45933;51.336;12.612;2022-10-16T13:35:24;100027.72;;;25.34;48.75
60061;BME280;45933;51.336;12.612;2022-10-16T13:37:50;100025.09;;;25.72;47.17
60061;BME280;45933;51.336;12.612;2022-10-16T13:40:23;100035.06;;;26.21;47.89
60061;BME280;45933;51.336;12.612;2022-10-16T13:42:50;100031.47;;;26.59;46.52
60061;BME280;45933;51.336;12.612;2022-10-16T13:45:20;100031.38;;;27.08;45.36
60061;BME280;45933;51.336;12.612;2022-10-16T13:47:45;100029.09;;;27.50;44.76
60061;BME280;45933;51.336;12.612;2022-10-16T13:50:14;100032.25;;;27.91;42.68
60061;BME280;45933;51.336;12.612;2022-10-16T13:52:39;100035.28;;;28.20;42.63
60061;BME280;45933;51.336;12.612;2022-10-16T13:55:14;100044.31;;;28.52;42.43
60061;BME280;45933;51.336;12.612;2022-10-16T13:57:40;100036.81;;;28.78;41.09
60061;BME280;45933;51.336;12.612;2022-10-16T14:00:22;100047.16;;;28.94;40.04
60061;BME280;45933;51.336;12.612;2022-10-16T14:03:01;100051.44;;;28.85;38.67
60061;BME280;45933;51.336;12.612;2022-10-16T14:05:27;100056.56;;;28.77;39.08
60061;BME280;45933;51.336;12.612;2022-10-16T14:07:53;100063.16;;;28.84;39.23
60061;BME280;45933;51.336;12.612;2022-10-16T14:10:24;100060.50;;;28.62;39.09
60061;BME280;45933;51.336;12.612;2022-10-16T14:12:58;100059.66;;;28.61;38.76